Time;durP1;ratioP1;P1;durP2;ratioP2;P2;SDS_P1;SDS_P2;PMS_P1;PMS_P2;Temp;Humidity;BMP_temperature;BMP_pressure;BME280_temperature;BME280_humidity;BME280_pressure;Samples;Min_cycle;Max_cycle;Signal;HPM_P1;HPM_P2
2023/09/02 00:04:04;;;;;;;4.20;3.10;;;24.30;66.10;;;;;;222890;1266;23911;-58
2023/09/02 00:09:07;;;;;;;3.90;2.80;;;24.20;66.20;;;;;;222488;1267;22523;-57
2023/09/02 00:14:10;;;;;;;3.00;2.70;;;24.10;66.20;;;;;;221997;1263;370428;-58
2023/09/02 00:19:13;;;;;;;4.70;3.10;;;24.20;66.00;;;;;;222312;1260;24041;-57
2023/09/02 00:24:16;;;;;;;4.80;3.00;;;24.10;66.10;;;;;;222141;1266;23893;-59
2023/09/02 00:29:19;;;;;;;4.40;3.60;;;24.20;65.90;;;;;;222118;1264;25374;-56
2023/09/02 00:34:22;;;;;;;2.60;2.40;;;24.20;66.10;;;;;;222335;1259;22560;-57
2023/09/02 00:39:24;;;;;;;5.50;2.70;;;24.10;66.00;;;;;;222206;1262;22532;-57
2023/09/02 00:44:27;;;;;;;3.20;2.60;;;24.20;65.90;;;;;;222410;1269;24251;-58
2023/09/02 00:49:33;;;;;;;4.40;3.00;;;24.20;65.80;;;;;;222259;1269;22513;-57
2023/09/02 00:54:36;;;;;;;3.90;2.80;;;24.20;65.80;;;;;;222258;1266;22650;-57
2023/09/02 00:59:39;;;;;;;3.30;2.70;;;24.10;65.90;;;;;;222458;1268;24308;-58
2023/09/02 01:04:42;;;;;;;5.40;2.40;;;24.20;65.80;;;;;;222306;1268;24215;-56
2023/09/02 01:09:52;;;;;;;3.30;2.60;;;24.10;66.00;;;;;;222716;1269;23912;-58
2023/09/02 01:14:55;;;;;;;2.80;2.40;;;24.10;65.90;;;;;;222695;1264;22559;-56
2023/09/02 01:19:59;;;;;;;3.90;2.80;;;24.10;66.00;;;;;;222561;1264;24323;-59
2023/09/02 01:25:24;;;;;;;4.40;3.10;;;24.00;66.00;;;;;;222520;1268;24305;-57
2023/09/02 01:30:31;;;;;;;3.00;2.70;;;24.00;66.10;;;;;;222653;1268;22511;-58
2023/09/02 01:35:35;;;;;;;3.10;2.80;;;24.00;66.10;;;;;;222496;1268;24214;-57
2023/09/02 01:40:40;;;;;;;3.90;3.00;;;24.00;65.90;;;;;;222418;1263;22581;-57
2023/09/02 01:45:43;;;;;;;2.90;2.50;;;24.10;66.00;;;;;;222580;1268;22692;-57
2023/09/02 01:50:47;;;;;;;3.00;2.70;;;24.00;65.80;;;;;;222465;1267;22665;-57
2023/09/02 01:55:53;;;;;;;3.00;2.70;;;24.10;65.90;;;;;;222299;1263;23905;-57
2023/09/02 02:00:58;;;;;;;2.80;2.20;;;24.00;65.90;;;;;;222205;1269;22637;-57
2023/09/02 02:06:05;;;;;;;4.10;2.80;;;24.00;66.10;;;;;;222328;1266;25955;-59
2023/09/02 02:11:09;;;;;;;3.20;2.90;;;24.00;66.10;;;;;;222274;1264;25475;-57
2023/09/02 02:16:12;;;;;;;2.60;2.30;;;24.00;66.00;;;;;;222711;1266;22527;-58
2023/09/02 02:21:16;;;;;;;2.50;2.30;;;24.00;66.30;;;;;;222622;1267;22518;-55
2023/09/02 02:26:19;;;;;;;2.60;2.40;;;24.00;66.70;;;;;;223087;1264;25275;-56
2023/09/02 02:31:22;;;;;;;3.50;3.00;;;23.90;66.10;;;;;;222788;1268;23878;-56
2023/09/02 02:36:25;;;;;;;3.60;2.70;;;23.90;66.10;;;;;;222666;1252;24295;-58
2023/09/02 02:41:33;;;;;;;3.10;2.40;;;23.90;66.10;;;;;;222608;1263;25386;-56
2023/09/02 02:46:36;;;;;;;3.80;2.50;;;24.00;65.90;;;;;;222885;1267;24191;-57
2023/09/02 02:51:38;;;;;;;2.60;2.40;;;23.90;66.20;;;;;;227254;1266;24209;-53
2023/09/02 02:56:41;;;;;;;4.90;2.40;;;24.00;65.60;;;;;;222477;1260;22521;-57
2023/09/02 03:01:44;;;;;;;2.60;2.30;;;24.10;65.40;;;;;;223123;1266;22818;-58
2023/09/02 03:06:47;;;;;;;3.00;2.70;;;24.00;65.80;;;;;;222762;1247;24248;-57
2023/09/02 03:11:53;;;;;;;3.40;2.50;;;23.90;65.90;;;;;;222204;1267;22521;-57
2023/09/02 03:16:56;;;;;;;3.00;2.70;;;23.90;66.00;;;;;;222269;1267;22548;-55
2023/09/02 03:21:58;;;;;;;2.70;2.40;;;23.90;66.00;;;;;;222300;1261;23218;-56
2023/09/02 03:27:03;;;;;;;3.60;2.50;;;23.90;66.40;;;;;;222496;1266;22540;-59
2023/09/02 03:32:06;;;;;;;4.60;2.60;;;23.90;66.50;;;;;;222463;1267;22522;-57
2023/09/02 03:37:08;;;;;;;2.60;2.20;;;23.90;66.10;;;;;;222429;1267;24216;-58
2023/09/02 03:42:11;;;;;;;2.90;2.60;;;23.90;66.10;;;;;;222625;1261;22537;-56
2023/09/02 03:47:14;;;;;;;2.40;2.20;;;23.90;66.30;;;;;;222974;1254;22510;-57
2023/09/02 03:52:17;;;;;;;3.20;2.30;;;23.90;66.30;;;;;;222576;1267;25922;-57
2023/09/02 03:57:20;;;;;;;2.80;2.60;;;23.90;66.20;;;;;;222558;1257;22521;-57
2023/09/02 04:02:26;;;;;;;2.10;2.00;;;23.90;66.50;;;;;;222685;1260;24244;-58
2023/09/02 04:07:29;;;;;;;2.60;2.40;;;23.90;66.30;;;;;;222972;1260;22519;-57
2023/09/02 04:12:32;;;;;;;2.80;2.30;;;23.90;66.00;;;;;;222442;1266;24228;-57
2023/09/02 04:17:35;;;;;;;2.50;2.10;;;23.90;66.20;;;;;;222882;1264;24237;-58
2023/09/02 04:22:38;;;;;;;2.50;2.30;;;23.90;66.10;;;;;;222984;1261;22530;-58
2023/09/02 04:27:41;;;;;;;2.50;2.30;;;23.90;66.20;;;;;;222547;1268;22608;-57
2023/09/02 04:32:47;;;;;;;2.30;2.00;;;23.90;66.30;;;;;;222369;1266;24307;-57
2023/09/02 04:37:51;;;;;;;2.50;2.30;;;23.90;66.10;;;;;;222279;1261;22520;-57
2023/09/02 04:42:56;;;;;;;2.60;2.40;;;23.90;66.00;;;;;;222482;1255;25405;-56
2023/09/02 04:48:00;;;;;;;2.10;2.00;;;23.90;66.40;;;;;;222808;1261;22514;-58
2023/09/02 04:53:07;;;;;;;2.10;1.90;;;23.90;66.50;;;;;;222373;1267;24149;-56
2023/09/02 04:58:14;;;;;;;2.20;2.00;;;23.90;66.30;;;;;;222242;1268;24252;-53
2023/09/02 05:03:18;;;;;;;2.10;1.90;;;23.90;66.20;;;;;;222097;1269;22526;-56
2023/09/02 05:08:31;;;;;;;2.50;2.30;;;23.90;66.50;;;;;;222183;1258;24235;-54
2023/09/02 05:13:34;;;;;;;2.40;2.20;;;23.80;66.20;;;;;;222078;1260;22572;-55
2023/09/02 05:18:38;;;;;;;1.80;1.70;;;23.80;66.40;;;;;;222420;1266;23648;-54
2023/09/02 05:23:40;;;;;;;3.20;2.00;;;23.90;66.20;;;;;;222418;1260;24729;-55
2023/09/02 05:28:44;;;;;;;2.10;1.90;;;23.90;66.10;;;;;;222679;1260;22540;-57
2023/09/02 05:33:48;;;;;;;1.80;1.60;;;23.90;65.90;;;;;;223046;1248;24204;-55
2023/09/02 05:38:50;;;;;;;2.30;2.00;;;23.80;66.10;;;;;;225824;1268;24153;-55
2023/09/02 05:43:54;;;;;;;2.80;1.80;;;23.90;66.00;;;;;;226537;1266;22740;-56
2023/09/02 05:48:57;;;;;;;2.20;2.00;;;24.10;65.90;;;;;;226431;1266;22602;-54
2023/09/02 05:54:00;;;;;;;2.20;2.00;;;24.00;65.60;;;;;;226255;1260;22674;-54
2023/09/02 05:59:04;;;;;;;2.30;2.10;;;24.10;65.70;;;;;;226642;1260;22852;-54
2023/09/02 06:04:07;;;;;;;2.90;2.50;;;24.10;65.50;;;;;;226467;1260;24273;-50
2023/09/02 06:09:10;;;;;;;2.30;2.10;;;24.00;65.60;;;;;;226403;1266;22528;-53
2023/09/02 06:14:13;;;;;;;2.30;2.10;;;24.10;65.50;;;;;;226157;1253;22785;-52
2023/09/02 06:19:16;;;;;;;2.00;1.90;;;24.10;65.80;;;;;;224737;1261;25243;-56
2023/09/02 06:24:19;;;;;;;2.40;2.00;;;24.10;65.60;;;;;;222774;1267;22640;-57
2023/09/02 06:29:22;;;;;;;2.20;2.00;;;24.00;66.20;;;;;;222450;1260;22590;-57
2023/09/02 06:34:24;;;;;;;2.20;2.10;;;24.00;66.40;;;;;;222408;1263;22527;-55
2023/09/02 06:39:27;;;;;;;3.60;2.00;;;23.90;66.20;;;;;;222322;1267;24221;-57
2023/09/02 06:44:30;;;;;;;2.00;1.90;;;24.00;66.50;;;;;;222760;1268;24366;-56
2023/09/02 06:49:33;;;;;;;4.10;2.00;;;23.90;66.60;;;;;;222508;1266;24073;-57
2023/09/02 06:54:36;;;;;;;2.10;2.00;;;23.90;66.30;;;;;;222567;1253;22517;-57
2023/09/02 06:59:39;;;;;;;1.90;1.80;;;23.90;66.50;;;;;;222740;1266;22514;-55
2023/09/02 07:04:42;;;;;;;2.00;1.80;;;23.90;66.50;;;;;;222885;1260;23885;-60
2023/09/02 07:09:45;;;;;;;2.40;1.90;;;23.90;66.50;;;;;;222619;1261;23899;-57
2023/09/02 07:14:47;;;;;;;4.30;2.10;;;23.90;66.40;;;;;;222585;1261;22643;-58
2023/09/02 07:19:50;;;;;;;1.90;1.80;;;24.00;66.50;;;;;;222633;1264;24224;-57
2023/09/02 07:24:53;;;;;;;6.40;2.20;;;24.10;66.50;;;;;;222630;1260;22679;-49
2023/09/02 07:29:58;;;;;;;3.00;2.30;;;24.00;66.10;;;;;;222344;1261;24232;-48
2023/09/02 07:35:01;;;;;;;2.90;2.60;;;23.90;66.70;;;;;;222849;1247;22516;-46
2023/09/02 07:40:06;;;;;;;4.00;2.50;;;23.80;67.30;;;;;;222580;1261;22508;-47
2023/09/02 07:45:09;;;;;;;4.30;3.20;;;23.90;67.00;;;;;;222431;1260;22517;-46
2023/09/02 07:50:12;;;;;;;4.60;3.60;;;23.90;68.20;;;;;;222517;1266;22643;-48
2023/09/02 07:55:18;;;;;;;3.20;2.90;;;23.70;68.30;;;;;;222551;1268;22522;-46
2023/09/02 08:00:21;;;;;;;6.30;2.60;;;23.80;68.10;;;;;;222600;1268;25395;-47
2023/09/02 08:05:27;;;;;;;3.60;3.00;;;23.80;68.70;;;;;;222125;1261;22516;-46
2023/09/02 08:10:39;;;;;;;3.40;2.40;;;23.90;68.00;;;;;;223012;1256;24486;-45
2023/09/02 08:15:43;;;;;;;7.50;2.10;;;23.90;67.30;;;;;;222708;1263;25463;-45
2023/09/02 08:20:46;;;;;;;6.30;2.30;;;23.90;67.10;;;;;;222672;1266;22523;-46
2023/09/02 08:25:49;;;;;;;4.60;2.60;;;23.70;67.40;;;;;;222568;1266;22518;-47
2023/09/02 08:30:52;;;;;;;2.90;2.50;;;23.70;67.80;;;;;;222861;1268;22530;-48
2023/09/02 08:35:55;;;;;;;4.70;2.60;;;23.80;67.20;;;;;;222591;1259;22556;-46
2023/09/02 08:41:01;;;;;;;2.70;2.40;;;23.80;67.60;;;;;;222518;1260;26400;-48
2023/09/02 08:46:09;;;;;;;4.20;2.40;;;23.90;67.70;;;;;;223013;1247;22517;-46
2023/09/02 08:51:13;;;;;;;5.10;2.50;;;23.60;68.20;;;;;;222911;1260;22518;-50
2023/09/02 08:56:16;;;;;;;2.50;2.10;;;23.70;68.10;;;;;;222827;1261;24140;-49
2023/09/02 09:01:20;;;;;;;2.90;1.80;;;23.90;67.70;;;;;;222610;1265;22548;-47
2023/09/02 09:06:24;;;;;;;3.40;1.60;;;24.00;67.10;;;;;;222658;1263;22531;-47
2023/09/02 09:11:31;;;;;;;6.80;1.70;;;24.00;66.80;;;;;;222535;1264;25332;-47
2023/09/02 09:16:37;;;;;;;3.30;1.90;;;24.00;66.90;;;;;;222586;1266;22589;-47
2023/09/02 09:21:40;;;;;;;5.10;2.60;;;24.10;67.10;;;;;;222870;1260;22619;-46
2023/09/02 09:26:47;;;;;;;2.00;1.80;;;24.20;66.00;;;;;;222828;1266;25482;-45
2023/09/02 09:32:08;;;;;;;3.20;2.10;;;24.20;65.50;;;;;;222764;1253;23896;-48
2023/09/02 09:37:20;;;;;;;3.00;2.10;;;24.20;66.10;;;;;;222505;1261;25339;-44
2023/09/02 09:42:35;;;;;;;9.30;2.20;;;24.10;65.70;;;;;;222299;1260;24914;-47
2023/09/02 09:47:41;;;;;;;3.90;1.90;;;24.10;65.70;;;;;;222398;1263;22521;-49
2023/09/02 09:53:10;;;;;;;3.80;2.10;;;24.30;65.20;;;;;;222806;1266;25309;-48
2023/09/02 09:58:23;;;;;;;8.20;2.40;;;24.40;64.10;;;;;;222659;1267;22647;-48
2023/09/02 10:03:30;;;;;;;2.00;1.80;;;24.50;63.70;;;;;;222650;1267;25271;-47
2023/09/02 10:08:49;;;;;;;5.20;1.80;;;24.50;63.80;;;;;;222549;1260;22668;-46
2023/09/02 10:14:02;;;;;;;7.90;1.80;;;24.50;64.00;;;;;;222653;1263;24365;-47
2023/09/02 10:19:05;;;;;;;6.70;2.10;;;24.50;63.50;;;;;;222667;1263;23908;-46
2023/09/02 10:24:12;;;;;;;4.70;2.10;;;24.60;63.50;;;;;;222103;1262;22642;-48
2023/09/02 10:29:21;;;;;;;2.50;1.80;;;24.70;62.90;;;;;;224768;1260;24225;-48
2023/09/02 10:34:28;;;;;;;6.20;2.00;;;24.80;62.30;;;;;;222548;1262;26516;-48
2023/09/02 10:39:43;;;;;;;7.40;2.40;;;24.90;62.00;;;;;;222446;1260;22529;-48
2023/09/02 10:44:47;;;;;;;9.70;2.80;;;24.90;63.00;;;;;;222158;1268;22527;-46
2023/09/02 10:49:50;;;;;;;10.60;2.40;;;24.80;64.60;;;;;;222508;1268;22513;-47
2023/09/02 10:55:08;;;;;;;6.80;3.00;;;24.70;64.10;;;;;;222471;1256;24266;-48
2023/09/02 11:00:29;;;;;;;7.10;2.50;;;24.70;63.80;;;;;;222111;1253;26345;-46
2023/09/02 11:06:06;;;;;;;8.50;3.60;;;24.70;63.90;;;;;;222531;1254;22550;-46
2023/09/02 11:11:08;;;;;;;10.90;3.70;;;24.70;64.20;;;;;;222805;1266;22521;-47
2023/09/02 11:16:15;;;;;;;6.40;3.90;;;25.00;64.70;;;;;;222110;1263;22659;-45
2023/09/02 11:21:43;;;;;;;14.30;4.10;;;25.30;63.20;;;;;;222518;1266;25424;-47
2023/09/02 11:26:49;;;;;;;11.60;3.20;;;25.20;63.00;;;;;;222363;1254;25271;-47
2023/09/02 11:32:00;;;;;;;4.20;3.00;;;25.20;63.00;;;;;;222505;1263;24674;-49
2023/09/02 11:37:03;;;;;;;4.90;2.80;;;25.20;62.20;;;;;;222383;1256;24648;-48
2023/09/02 11:42:11;;;;;;;6.00;2.80;;;25.30;61.70;;;;;;222481;1259;22532;-54
2023/09/02 11:47:14;;;;;;;5.20;2.40;;;25.10;64.20;;;;;;222558;1260;22520;-52
2023/09/02 11:52:22;;;;;;;7.90;2.60;;;25.00;62.50;;;;;;222418;1266;22540;-53
2023/09/02 11:57:24;;;;;;;5.40;2.50;;;24.80;62.30;;;;;;222595;1256;25220;-50
2023/09/02 12:02:27;;;;;;;3.10;2.30;;;24.70;62.20;;;;;;222368;1263;24041;-51
2023/09/02 12:07:32;;;;;;;5.10;2.30;;;24.60;61.80;;;;;;222223;1255;22520;-47
2023/09/02 12:12:43;;;;;;;5.20;2.40;;;24.60;61.80;;;;;;222592;1262;23889;-49
2023/09/02 12:17:47;;;;;;;2.50;2.30;;;24.40;61.30;;;;;;222403;1266;180624;-51
2023/09/02 12:22:50;;;;;;;6.10;2.50;;;24.50;61.40;;;;;;222754;1266;22524;-50
2023/09/02 12:28:09;;;;;;;4.00;2.40;;;24.70;60.30;;;;;;222781;1266;22526;-49
2023/09/02 12:33:11;;;;;;;2.30;2.00;;;24.90;59.50;;;;;;222500;1267;24196;-46
2023/09/02 12:38:15;;;;;;;2.90;2.30;;;25.10;59.40;;;;;;222332;1266;24216;-44
2023/09/02 12:43:24;;;;;;;6.40;2.90;;;25.20;59.80;;;;;;222265;1260;22522;-45
2023/09/02 12:48:29;;;;;;;11.60;2.40;;;25.10;60.70;;;;;;222573;1251;25297;-47
2023/09/02 12:53:32;;;;;;;5.00;2.30;;;25.10;60.40;;;;;;222395;1263;22511;-47
2023/09/02 12:58:34;;;;;;;4.10;2.00;;;25.00;60.50;;;;;;222484;1266;22591;-46
2023/09/02 13:03:37;;;;;;;4.00;2.00;;;25.10;59.00;;;;;;222513;1268;22644;-46
2023/09/02 13:08:43;;;;;;;5.20;2.00;;;25.00;59.30;;;;;;222159;1268;24478;-50
2023/09/02 13:13:46;;;;;;;5.10;2.20;;;25.10;59.50;;;;;;222679;1250;22629;-46
2023/09/02 13:18:51;;;;;;;4.00;2.20;;;25.10;59.50;;;;;;222343;1268;22545;-46
2023/09/02 13:23:54;;;;;;;2.50;2.20;;;25.10;59.00;;;;;;222252;1266;22514;-50
2023/09/02 13:29:07;;;;;;;3.00;1.90;;;25.10;59.00;;;;;;222170;1267;22517;-50
2023/09/02 13:34:36;;;;;;;4.80;2.00;;;25.10;59.00;;;;;;222789;1260;22516;-47
2023/09/02 13:40:18;;;;;;;2.40;2.20;;;25.00;59.30;;;;;;222548;1268;25453;-49
2023/09/02 13:45:30;;;;;;;2.80;2.30;;;24.90;59.70;;;;;;222960;1260;26490;-51
2023/09/02 13:50:43;;;;;;;2.50;2.30;;;24.90;59.90;;;;;;222963;1261;25453;-52
2023/09/02 13:55:52;;;;;;;;;;;24.70;60.20;;;;;;222668;1261;23880;-47
2023/09/02 14:01:04;;;;;;;6.60;3.50;;;24.70;60.50;;;;;;222481;1263;22527;-53
2023/09/02 14:06:23;;;;;;;7.50;2.90;;;24.80;61.40;;;;;;221744;1258;24273;-46
2023/09/02 14:11:35;;;;;;;4.40;2.70;;;24.70;60.50;;;;;;229131;1262;25236;-46
2023/09/02 14:16:48;;;;;;;3.60;2.20;;;24.90;59.90;;;;;;222218;1261;25129;-44
2023/09/02 14:22:02;;;;;;;3.80;2.90;;;25.10;59.00;;;;;;222555;1266;22660;-45
2023/09/02 14:27:17;;;;;;;7.10;3.00;;;25.10;61.00;;;;;;222421;1264;25579;-47
2023/09/02 14:32:26;;;;;;;4.60;3.00;;;24.90;60.30;;;;;;222476;1261;25275;-47
2023/09/02 14:37:42;;;;;;;2.50;2.30;;;24.90;60.50;;;;;;222614;1263;22522;-51
2023/09/02 14:42:52;;;;;;;7.40;4.50;;;24.90;60.30;;;;;;222324;1266;25477;-44
2023/09/02 14:48:01;;;;;;;10.60;4.30;;;24.80;60.00;;;;;;222388;1263;22536;-47
2023/09/02 14:53:09;;;;;;;4.50;3.10;;;24.80;60.70;;;;;;222742;1266;22531;-47
2023/09/02 14:58:19;;;;;;;6.10;2.80;;;24.90;59.30;;;;;;222550;1263;22520;-47
2023/09/02 15:03:36;;;;;;;4.10;2.70;;;25.00;58.60;;;;;;222286;1263;25352;-45
2023/09/02 15:08:44;;;;;;;4.40;2.30;;;24.90;59.00;;;;;;222680;1265;26493;-49
2023/09/02 15:13:54;;;;;;;3.50;2.80;;;24.70;59.00;;;;;;222787;1263;25674;-48
2023/09/02 15:19:05;;;;;;;3.30;2.10;;;24.90;60.20;;;;;;222801;1265;24251;-48
2023/09/02 15:24:12;;;;;;;2.50;2.30;;;25.10;59.20;;;;;;222869;1266;22568;-46
2023/09/02 15:29:25;;;;;;;5.90;2.00;;;25.10;59.20;;;;;;222946;1261;22644;-48
2023/09/02 15:34:37;;;;;;;2.20;2.00;;;25.00;58.70;;;;;;222537;1263;22576;-49
2023/09/02 15:39:46;;;;;;;4.20;2.10;;;25.10;58.60;;;;;;222469;1263;22522;-48
2023/09/02 15:44:54;;;;;;;5.60;2.30;;;25.00;58.70;;;;;;222523;1255;23964;-49
2023/09/02 15:50:04;;;;;;;2.40;2.00;;;25.10;59.50;;;;;;222461;1263;25349;-50
2023/09/02 15:55:23;;;;;;;4.70;2.30;;;25.20;59.60;;;;;;222539;1256;22521;-48
2023/09/02 16:00:35;;;;;;;6.00;2.20;;;25.10;60.00;;;;;;222359;1254;23329;-48
2023/09/02 16:05:49;;;;;;;4.00;2.30;;;25.20;59.60;;;;;;222922;1253;22533;-48
2023/09/02 16:11:00;;;;;;;6.40;2.90;;;25.10;59.80;;;;;;222607;1267;24201;-47
2023/09/02 16:16:07;;;;;;;3.10;2.30;;;25.10;60.00;;;;;;222888;1267;22516;-50
2023/09/02 16:21:10;;;;;;;3.00;2.20;;;25.10;60.00;;;;;;223217;1263;24288;-48
2023/09/02 16:26:13;;;;;;;6.40;2.80;;;25.00;60.20;;;;;;222701;1261;23921;-49
2023/09/02 16:31:17;;;;;;;3.30;2.30;;;25.00;60.30;;;;;;222600;1266;23251;-50
2023/09/02 16:36:20;;;;;;;4.20;3.00;;;24.90;60.30;;;;;;222552;1266;22529;-48
2023/09/02 16:41:24;;;;;;;3.50;3.10;;;24.90;60.40;;;;;;222630;1263;24867;-51
2023/09/02 16:46:27;;;;;;;2.90;2.70;;;24.90;60.90;;;;;;222448;1266;23937;-48
2023/09/02 16:51:31;;;;;;;4.00;3.20;;;24.90;60.60;;;;;;222541;1260;22629;-48
2023/09/02 16:56:37;;;;;;;3.30;3.10;;;24.80;60.90;;;;;;222390;1263;22759;-48
2023/09/02 17:01:42;;;;;;;3.30;3.10;;;24.90;60.70;;;;;;222352;1268;22582;-46
2023/09/02 17:06:46;;;;;;;3.60;3.30;;;24.80;60.70;;;;;;222501;1257;22530;-49
2023/09/02 17:11:49;;;;;;;3.50;3.20;;;24.90;60.80;;;;;;222457;1266;25404;-48
2023/09/02 17:16:52;;;;;;;3.10;2.80;;;24.80;60.80;;;;;;222512;1245;22515;-49
2023/09/02 17:21:56;;;;;;;3.70;3.20;;;24.80;60.80;;;;;;222838;1263;22521;-50
2023/09/02 17:26:59;;;;;;;3.30;3.00;;;24.80;60.90;;;;;;222528;1261;22567;-49
2023/09/02 17:32:22;;;;;;;3.60;3.40;;;24.80;60.60;;;;;;222535;1263;22521;-50
2023/09/02 17:37:25;;;;;;;4.40;3.50;;;24.80;61.20;;;;;;222698;1266;22521;-47
2023/09/02 17:42:29;;;;;;;3.60;3.30;;;24.70;61.50;;;;;;223025;1263;22520;-46
2023/09/02 17:47:32;;;;;;;7.50;3.90;;;24.90;61.60;;;;;;222799;1260;24243;-50
2023/09/02 17:52:36;;;;;;;7.60;4.20;;;24.90;62.50;;;;;;222416;1264;25271;-47
2023/09/02 17:57:39;;;;;;;6.10;3.80;;;25.00;62.90;;;;;;222940;1263;22724;-47
2023/09/02 18:02:50;;;;;;;;;;;25.00;62.70;;;;;;222768;1266;22614;-49
2023/09/02 18:07:54;;;;;;;6.30;4.50;;;24.70;62.80;;;;;;222343;1254;24235;-50
2023/09/02 18:12:57;;;;;;;9.10;4.60;;;24.50;63.30;;;;;;222515;1267;23109;-47
2023/09/02 18:18:01;;;;;;;9.20;4.10;;;24.30;63.60;;;;;;222934;1264;26366;-47
2023/09/02 18:23:04;;;;;;;7.70;4.50;;;24.30;64.20;;;;;;222455;1260;22633;-50
2023/09/02 18:28:08;;;;;;;8.10;4.40;;;24.10;64.40;;;;;;222442;1261;24193;-47
2023/09/02 18:33:11;;;;;;;8.30;4.50;;;24.00;63.90;;;;;;222652;1268;25166;-48
2023/09/02 18:38:16;;;;;;;11.50;5.40;;;24.20;64.60;;;;;;222569;1266;22514;-47
2023/09/02 18:43:20;;;;;;;10.80;4.20;;;24.40;63.80;;;;;;222922;1268;25268;-44
2023/09/02 18:48:24;;;;;;;16.80;4.30;;;24.40;63.90;;;;;;222859;1263;22531;-46
2023/09/02 18:53:27;;;;;;;7.40;5.10;;;24.40;64.10;;;;;;222970;1266;25279;-43
2023/09/02 18:58:33;;;;;;;9.80;5.60;;;24.30;63.60;;;;;;222507;1263;24404;-45
2023/09/02 19:03:37;;;;;;;6.80;5.30;;;24.00;63.90;;;;;;222326;1268;25384;-45
2023/09/02 19:08:43;;;;;;;11.50;6.10;;;23.90;64.50;;;;;;223614;1258;22522;-48
2023/09/02 19:13:47;;;;;;;9.90;6.50;;;23.80;64.80;;;;;;222472;1264;22692;-46
2023/09/02 19:18:51;;;;;;;8.70;6.50;;;23.80;64.40;;;;;;222567;1263;22602;-44
2023/09/02 19:23:56;;;;;;;9.60;5.90;;;23.60;64.40;;;;;;222019;1266;24375;-46
2023/09/02 19:29:00;;;;;;;10.00;5.80;;;23.60;64.60;;;;;;223009;1268;24220;-48
2023/09/02 19:34:05;;;;;;;9.40;6.40;;;23.70;64.50;;;;;;222585;1268;22517;-45
2023/09/02 19:39:17;;;;;;;9.30;5.70;;;23.50;65.00;;;;;;222581;1260;24352;-44
2023/09/02 19:44:21;;;;;;;5.80;5.30;;;23.30;65.50;;;;;;222554;1268;22576;-47
2023/09/02 19:49:28;;;;;;;7.50;5.90;;;23.20;66.10;;;;;;222634;1261;22624;-44
2023/09/02 19:54:36;;;;;;;5.60;5.10;;;23.10;66.30;;;;;;222020;1269;25323;-48
2023/09/02 19:59:40;;;;;;;9.00;5.40;;;23.00;66.30;;;;;;222677;1254;22534;-46
2023/09/02 20:04:44;;;;;;;5.90;5.10;;;23.00;66.40;;;;;;222166;1254;22521;-48
2023/09/02 20:09:48;;;;;;;6.50;5.00;;;22.90;65.90;;;;;;221911;1264;22534;-55
2023/09/02 20:14:53;;;;;;;6.20;4.70;;;22.90;67.00;;;;;;222668;1268;25649;-46
2023/09/02 20:19:57;;;;;;;6.10;4.60;;;22.90;66.70;;;;;;222123;1266;25091;-45
2023/09/02 20:25:04;;;;;;;6.90;5.00;;;22.90;66.90;;;;;;222119;1257;24184;-47
2023/09/02 20:30:10;;;;;;;6.90;4.70;;;22.80;67.40;;;;;;222437;1263;25268;-47
2023/09/02 20:35:19;;;;;;;4.60;4.20;;;22.80;68.00;;;;;;222415;1268;24237;-47
2023/09/02 20:40:24;;;;;;;5.20;4.70;;;22.80;67.50;;;;;;222485;1259;25340;-48
2023/09/02 20:45:27;;;;;;;6.70;4.00;;;22.90;67.50;;;;;;222264;1269;25230;-44
2023/09/02 20:50:31;;;;;;;4.30;3.90;;;22.90;67.50;;;;;;222342;1263;22533;-43
2023/09/02 20:55:35;;;;;;;4.60;4.20;;;22.90;67.90;;;;;;222741;1261;22556;-50
2023/09/02 21:00:39;;;;;;;7.90;5.50;;;23.00;67.20;;;;;;222400;1268;24369;-46
2023/09/02 21:05:43;;;;;;;4.80;4.30;;;22.90;67.10;;;;;;222564;1269;24218;-45
2023/09/02 21:10:47;;;;;;;5.40;4.90;;;22.90;66.90;;;;;;222747;1261;22635;-50
2023/09/02 21:15:50;;;;;;;9.80;6.50;;;22.90;66.70;;;;;;222548;1266;23750;-46
2023/09/02 21:20:52;;;;;;;7.60;5.90;;;23.00;66.80;;;;;;222707;1266;22538;-48
2023/09/02 21:26:09;;;;;;;14.20;5.70;;;23.10;67.00;;;;;;222571;1266;23183;-45
2023/09/02 21:31:14;;;;;;;10.00;5.60;;;23.30;67.10;;;;;;222632;1261;24336;-47
2023/09/02 21:36:18;;;;;;;9.60;6.00;;;23.40;68.00;;;;;;222159;1264;22611;-46
2023/09/02 21:41:21;;;;;;;9.60;6.30;;;23.40;68.50;;;;;;222456;1263;24221;-49
2023/09/02 21:46:24;;;;;;;10.50;6.20;;;23.50;68.40;;;;;;222506;1264;24113;-46
2023/09/02 21:51:27;;;;;;;6.90;5.70;;;23.60;67.90;;;;;;222494;1268;23925;-49
2023/09/02 21:56:30;;;;;;;6.20;5.60;;;23.50;67.90;;;;;;222540;1257;23095;-49
2023/09/02 22:01:33;;;;;;;6.80;6.20;;;23.50;67.90;;;;;;222236;1260;22623;-47
2023/09/02 22:06:36;;;;;;;6.20;5.60;;;23.50;67.80;;;;;;222285;1267;22601;-50
2023/09/02 22:11:39;;;;;;;6.70;6.00;;;23.50;67.60;;;;;;222532;1261;22530;-46
2023/09/02 22:16:42;;;;;;;8.80;6.20;;;23.50;67.60;;;;;;222299;1263;25349;-48
2023/09/02 22:21:46;;;;;;;7.40;6.40;;;23.40;67.50;;;;;;222067;1261;22546;-46
2023/09/02 22:26:49;;;;;;;9.00;6.50;;;23.40;67.60;;;;;;222257;1263;22527;-47
2023/09/02 22:31:52;;;;;;;6.70;6.00;;;23.40;66.90;;;;;;221884;1264;25377;-47
2023/09/02 22:36:55;;;;;;;6.30;5.70;;;23.50;67.30;;;;;;222556;1254;22521;-45
2023/09/02 22:41:59;;;;;;;7.00;6.30;;;23.40;67.30;;;;;;222557;1261;22518;-49
2023/09/02 22:47:03;;;;;;;6.50;5.80;;;23.40;67.20;;;;;;222269;1267;22635;-47
2023/09/02 22:52:06;;;;;;;6.50;5.90;;;23.40;67.20;;;;;;222325;1260;22653;-44
2023/09/02 22:57:09;;;;;;;7.20;6.50;;;23.40;67.30;;;;;;222128;1254;22778;-46
2023/09/02 23:02:13;;;;;;;7.00;6.40;;;23.40;67.40;;;;;;222267;1254;22519;-47
2023/09/02 23:07:16;;;;;;;7.30;6.70;;;23.40;66.90;;;;;;222600;1260;22516;-46
2023/09/02 23:12:20;;;;;;;6.70;6.10;;;23.50;67.60;;;;;;222248;1257;23988;-51
2023/09/02 23:17:23;;;;;;;6.10;5.50;;;23.60;67.00;;;;;;222720;1261;26528;-48
2023/09/02 23:22:26;;;;;;;6.40;5.70;;;23.60;67.20;;;;;;222365;1254;22709;-51
2023/09/02 23:27:29;;;;;;;6.90;6.00;;;23.70;67.30;;;;;;222305;1267;24104;-50
2023/09/02 23:32:32;;;;;;;6.30;5.70;;;23.70;67.30;;;;;;222267;1254;22513;-49
2023/09/02 23:37:35;;;;;;;5.90;5.50;;;23.70;67.70;;;;;;222138;1267;23921;-51
2023/09/02 23:42:38;;;;;;;7.50;5.60;;;23.70;67.40;;;;;;222070;1268;22514;-51
2023/09/02 23:47:41;;;;;;;5.60;5.20;;;23.70;67.40;;;;;;222178;1268;24100;-49
2023/09/02 23:52:44;;;;;;;7.20;5.90;;;23.70;67.20;;;;;;222503;1261;22510;-48
2023/09/02 23:57:48;;;;;;;5.40;5.00;;;23.70;67.50;;;;;;222441;1261;22518;-52
